Aérodrome :
LOGIN :

S'inscrire | Disclaimer

   EN    FR    IT 

 










Légende :    VFR   VFR Marginal   IFR   IFR Intensif   IFR Très Intensif
Visi : 
Plafond : 
>= 8 km
>= 3000ft
5 à 8 km
1000 à 3000 ft
1500m à 5 km
500 à 1000 ft
800 à 1500m
200 à 500 ft
< 800m
< 200 ft
Symboles :   Orages  Brouillard  Fortes neiges  Fortes précipitations  Vent > 20 kt
SIGMETs :   Divers  Orages  Givrage  Turbulence  Onde Orograph.  Cendres Volcan.






- Altitude de l'aérodrome : 741 ft
- Code IATA : PED


LKPD - Pardubice AB

DERNIER METAR :
  • 282030Z 26002KT CAVOK 11/09 Q1026 NOSIG RMK BLU BLU

METARs EXPIRÉS :
  • 282000Z 23003KT 9999 BKN045 12/09 Q1026 NOSIG RMK BLU BLU
  • 281930Z 24003KT 9999 BKN045 12/09 Q1026 NOSIG RMK BLU BLU
  • 281900Z VRB01KT 9999 BKN045 12/09 Q1026 NOSIG RMK BLU BLU
  • 281830Z 24003KT CAVOK 12/09 Q1025 NOSIG RMK BLU BLU
  • 281800Z 25004KT CAVOK 12/09 Q1025 NOSIG RMK BLU BLU

TAF COR TAF LKPD
Valide du 28 à 18h jusqu'au 29 à 18h UTC


281700Z 2818/2918 34006KT 9999 BKN040
PROB30
TEMPO 2818/2820 7000 SHRA BKN030
TEMPO 2823/2908 SCT025
BECMG 2905/2907 03008KT
BECMG 2910/2912 CAVOK
TEMPO 2912/2917 03015KT



MET'MAP, la Météo Aéronautique d'un coup d'oeil ! - Copyright ORBIFLY Décembre 2007 - Disclaimer

ORBIFLY MET'MAP TEAM :

Programmation & Développement : Alexandra Zaïnal
Sur une idée originale de : Baudouin d'Aumeries
Assistance à la programmation : Marc-Olivier Méhu
Soutien technique & logistique : Manuel Goepfert

Contact : metmap@orbifly.com




SOURCES & CREDITS :

   NOAA